Time;durP1;ratioP1;P1;durP2;ratioP2;P2;SDS_P1;SDS_P2;PMS_P1;PMS_P2;Temp;Humidity;BMP_temperature;BMP_pressure;BME280_temperature;BME280_humidity;BME280_pressure;Samples;Min_cycle;Max_cycle;Signal;HPM_P1;HPM_P2
2022/01/13 00:02:30;;;;;;;6.93;4.05;;;;;;;;;;5069614;28;20199;-63
2022/01/13 00:04:56;;;;;;;6.35;3.38;;;;;;;;;;5065259;28;20221;-63
2022/01/13 00:07:22;;;;;;;5.57;3.58;;;;;;;;;;5071590;28;20171;-64
2022/01/13 00:09:48;;;;;;;6.55;3.90;;;;;;;;;;5065229;28;20197;-64
2022/01/13 00:12:17;;;;;;;5.20;3.58;;;;;;;;;;5068990;28;20273;-63
2022/01/13 00:15:08;;;;;;;5.43;3.70;;;;;;;;;;5069636;28;20193;-63
2022/01/13 00:17:59;;;;;;;5.10;3.55;;;;;;;;;;5074689;28;20175;-63
2022/01/13 00:23:40;;;;;;;4.80;3.33;;;;;;;;;;5067622;28;20196;-63
2022/01/13 00:25:37;;;;;;;6.40;3.70;;;;;;;;;;5071394;28;20307;-63
2022/01/13 00:28:14;;;;;;;4.57;3.22;;;;;;;;;;5073290;28;20197;-63
2022/01/13 00:30:40;;;;;;;4.70;3.35;;;;;;;;;;5073845;28;20225;-64
2022/01/13 00:33:08;;;;;;;4.05;3.10;;;;;;;;;;5065963;28;20182;-63
2022/01/13 00:35:34;;;;;;;6.25;2.97;;;;;;;;;;5067379;28;20214;-64
2022/01/13 00:38:00;;;;;;;5.13;2.97;;;;;;;;;;5066734;28;20197;-64
2022/01/13 00:40:26;;;;;;;4.85;3.60;;;;;;;;;;5069454;28;20205;-64
2022/01/13 00:42:52;;;;;;;4.15;2.97;;;;;;;;;;5075237;28;20615;-64
2022/01/13 00:45:18;;;;;;;4.53;2.90;;;;;;;;;;5059806;28;20225;-64
2022/01/13 00:47:44;;;;;;;4.65;2.80;;;;;;;;;;5070176;28;20186;-64
2022/01/13 00:50:10;;;;;;;4.18;2.95;;;;;;;;;;5064099;28;20211;-64
2022/01/13 00:52:36;;;;;;;4.00;3.13;;;;;;;;;;5057270;28;20183;-64
2022/01/13 00:55:07;;;;;;;3.60;2.65;;;;;;;;;;5073901;28;20178;-64
2022/01/13 00:57:33;;;;;;;4.30;2.92;;;;;;;;;;5072279;28;20235;-64
2022/01/13 00:59:59;;;;;;;4.68;2.75;;;;;;;;;;5072195;28;20178;-64
2022/01/13 01:02:26;;;;;;;3.85;3.00;;;;;;;;;;5069797;28;20232;-64
2022/01/13 01:04:52;;;;;;;4.40;3.00;;;;;;;;;;5063971;28;20182;-64
2022/01/13 01:07:18;;;;;;;3.40;2.70;;;;;;;;;;5072476;28;20181;-64
2022/01/13 01:09:49;;;;;;;3.40;2.58;;;;;;;;;;5068213;28;20213;-64
2022/01/13 01:12:16;;;;;;;3.00;2.47;;;;;;;;;;5072298;28;20189;-64
2022/01/13 01:14:48;;;;;;;3.83;2.72;;;;;;;;;;5073446;28;20281;-64
2022/01/13 01:17:17;;;;;;;3.17;2.40;;;;;;;;;;5071043;28;20221;-64
2022/01/13 01:19:47;;;;;;;2.65;2.40;;;;;;;;;;5072378;28;20828;-63
2022/01/13 01:22:33;;;;;;;4.03;2.72;;;;;;;;;;5074547;28;20222;-64
2022/01/13 01:25:18;;;;;;;3.92;2.78;;;;;;;;;;5060519;28;20174;-64
2022/01/13 01:27:48;;;;;;;2.63;2.30;;;;;;;;;;5064373;28;20335;-64
2022/01/13 01:30:27;;;;;;;3.42;2.30;;;;;;;;;;5069724;28;20302;-64
2022/01/13 01:32:53;;;;;;;2.92;2.63;;;;;;;;;;5060605;28;20178;-64
2022/01/13 01:35:19;;;;;;;3.15;2.30;;;;;;;;;;5068806;28;20570;-64
2022/01/13 01:37:46;;;;;;;3.90;2.50;;;;;;;;;;5069995;28;20182;-64
2022/01/13 01:40:14;;;;;;;3.45;2.25;;;;;;;;;;5068479;28;20466;-64
2022/01/13 01:42:40;;;;;;;4.00;2.35;;;;;;;;;;5070293;28;20252;-64
2022/01/13 01:45:07;;;;;;;5.32;2.38;;;;;;;;;;5067811;28;20179;-64
2022/01/13 01:47:34;;;;;;;3.53;2.03;;;;;;;;;;5069599;28;20187;-64
2022/01/13 01:50:09;;;;;;;2.25;2.05;;;;;;;;;;5062878;28;20599;-64
2022/01/13 01:52:35;;;;;;;2.90;2.00;;;;;;;;;;5064957;28;20251;-64
2022/01/13 01:55:01;;;;;;;4.80;2.10;;;;;;;;;;5069476;28;20461;-64
2022/01/13 01:57:27;;;;;;;3.90;2.20;;;;;;;;;;5071270;28;20232;-64
2022/01/13 01:59:54;;;;;;;2.15;1.95;;;;;;;;;;5068310;28;20251;-64
2022/01/13 02:02:21;;;;;;;3.55;2.40;;;;;;;;;;5069175;28;20209;-64
2022/01/13 02:04:47;;;;;;;2.80;2.15;;;;;;;;;;5066582;28;20179;-64
2022/01/13 02:07:14;;;;;;;4.50;2.13;;;;;;;;;;5068490;28;20537;-64
2022/01/13 02:09:42;;;;;;;2.50;2.00;;;;;;;;;;5071268;28;20190;-64
2022/01/13 02:12:12;;;;;;;3.10;2.00;;;;;;;;;;5067752;28;20213;-64
2022/01/13 02:17:34;;;;;;;3.08;2.10;;;;;;;;;;5068849;28;20729;-64
2022/01/13 02:20:03;;;;;;;2.55;2.17;;;;;;;;;;5065313;28;20182;-64
2022/01/13 02:22:29;;;;;;;1.70;1.60;;;;;;;;;;5069872;28;20182;-64
2022/01/13 02:24:55;;;;;;;2.15;1.95;;;;;;;;;;5056169;28;20186;-64
2022/01/13 02:27:22;;;;;;;1.90;1.70;;;;;;;;;;5073245;28;20284;-64
2022/01/13 02:29:48;;;;;;;2.38;2.00;;;;;;;;;;5069024;28;20201;-64
2022/01/13 02:32:14;;;;;;;2.20;2.00;;;;;;;;;;5065662;28;20344;-64
2022/01/13 02:34:40;;;;;;;2.20;1.95;;;;;;;;;;5068231;28;20273;-64
2022/01/13 02:37:07;;;;;;;2.50;1.90;;;;;;;;;;5069271;28;20265;-64
2022/01/13 02:39:33;;;;;;;2.58;1.98;;;;;;;;;;5059065;28;20178;-64
2022/01/13 02:42:00;;;;;;;1.70;1.48;;;;;;;;;;5069183;28;20256;-64
2022/01/13 02:44:26;;;;;;;2.15;1.58;;;;;;;;;;5071467;28;20190;-64
2022/01/13 02:47:07;;;;;;;2.30;1.85;;;;;;;;;;5070526;28;20237;-64
2022/01/13 02:49:33;;;;;;;2.17;1.60;;;;;;;;;;5058996;28;20709;-64
2022/01/13 02:51:59;;;;;;;2.47;1.90;;;;;;;;;;5067751;28;20202;-64
2022/01/13 02:54:25;;;;;;;2.33;1.83;;;;;;;;;;5071690;28;20183;-64
2022/01/13 02:56:53;;;;;;;2.35;1.80;;;;;;;;;;5063612;28;20220;-63
2022/01/13 02:59:19;;;;;;;1.77;1.67;;;;;;;;;;5064764;28;20214;-64
2022/01/13 03:01:44;;;;;;;2.00;1.80;;;;;;;;;;5065732;28;20311;-64
2022/01/13 03:04:10;;;;;;;2.13;1.92;;;;;;;;;;5062176;28;20193;-64
2022/01/13 03:06:39;;;;;;;1.63;1.52;;;;;;;;;;5068834;28;20217;-64
2022/01/13 03:09:09;;;;;;;1.70;1.60;;;;;;;;;;5072672;28;20802;-64
2022/01/13 03:11:37;;;;;;;1.70;1.60;;;;;;;;;;5069111;28;20593;-64
2022/01/13 03:14:08;;;;;;;1.70;1.58;;;;;;;;;;5067195;28;20551;-64
2022/01/13 03:16:35;;;;;;;2.67;2.03;;;;;;;;;;5066449;28;20183;-64
2022/01/13 03:19:01;;;;;;;2.20;1.85;;;;;;;;;;5057215;28;20431;-64
2022/01/13 03:21:27;;;;;;;1.88;1.70;;;;;;;;;;5069527;28;20211;-64
2022/01/13 03:23:53;;;;;;;3.17;2.17;;;;;;;;;;5061186;28;20179;-64
2022/01/13 03:26:22;;;;;;;1.70;1.60;;;;;;;;;;5066841;28;20425;-64
2022/01/13 03:29:05;;;;;;;1.88;1.70;;;;;;;;;;5061808;28;20233;-64
2022/01/13 03:31:31;;;;;;;1.70;1.60;;;;;;;;;;5063375;28;20274;-64
2022/01/13 03:33:57;;;;;;;1.55;1.45;;;;;;;;;;5062852;28;20178;-64
2022/01/13 03:36:23;;;;;;;2.08;1.67;;;;;;;;;;5071124;28;20174;-63
2022/01/13 03:38:51;;;;;;;1.95;1.70;;;;;;;;;;5071984;28;20450;-64
2022/01/13 03:41:19;;;;;;;1.88;1.73;;;;;;;;;;5072328;28;20178;-64
2022/01/13 03:43:45;;;;;;;1.92;1.73;;;;;;;;;;5067102;28;20201;-64
2022/01/13 03:46:14;;;;;;;3.85;1.90;;;;;;;;;;5063980;28;20187;-64
2022/01/13 03:48:40;;;;;;;1.77;1.58;;;;;;;;;;5071029;28;20193;-63
2022/01/13 03:51:06;;;;;;;1.95;1.73;;;;;;;;;;5064393;28;20203;-64
2022/01/13 03:53:32;;;;;;;1.40;1.30;;;;;;;;;;5075470;28;20204;-64
2022/01/13 03:56:17;;;;;;;1.75;1.58;;;;;;;;;;5072217;28;20183;-64
2022/01/13 03:58:52;;;;;;;1.77;1.63;;;;;;;;;;5069886;28;20488;-63
2022/01/13 04:01:21;;;;;;;2.20;1.90;;;;;;;;;;5073460;28;20205;-63
2022/01/13 04:03:47;;;;;;;2.22;1.70;;;;;;;;;;5075121;28;20285;-63
2022/01/13 04:06:13;;;;;;;1.48;1.38;;;;;;;;;;5074635;28;20270;-63
2022/01/13 04:08:39;;;;;;;1.77;1.67;;;;;;;;;;5065601;28;20190;-64
2022/01/13 04:11:05;;;;;;;2.60;1.67;;;;;;;;;;5073816;28;20301;-64
2022/01/13 04:16:36;;;;;;;1.92;1.60;;;;;;;;;;5070198;28;20186;-63
2022/01/13 04:19:04;;;;;;;1.90;1.70;;;;;;;;;;5066068;28;20219;-63
2022/01/13 04:21:30;;;;;;;1.50;1.40;;;;;;;;;;5064977;28;20191;-63
2022/01/13 04:23:57;;;;;;;1.85;1.73;;;;;;;;;;5067020;28;20269;-63
2022/01/13 04:26:28;;;;;;;1.70;1.60;;;;;;;;;;5072268;28;20186;-63
2022/01/13 04:29:16;;;;;;;1.85;1.65;;;;;;;;;;5073352;28;20186;-63
2022/01/13 04:31:43;;;;;;;1.50;1.40;;;;;;;;;;5073167;28;20285;-62
2022/01/13 04:34:10;;;;;;;1.60;1.50;;;;;;;;;;5068038;28;20584;-62
2022/01/13 04:36:36;;;;;;;1.70;1.60;;;;;;;;;;5067257;28;20221;-62
2022/01/13 04:39:03;;;;;;;2.00;1.70;;;;;;;;;;5068452;28;20186;-61
2022/01/13 04:41:33;;;;;;;1.65;1.55;;;;;;;;;;5075327;28;20191;-61
2022/01/13 04:43:59;;;;;;;1.52;1.42;;;;;;;;;;5063534;28;20565;-61
2022/01/13 04:46:25;;;;;;;1.85;1.60;;;;;;;;;;5067673;28;20186;-61
2022/01/13 04:48:51;;;;;;;1.80;1.70;;;;;;;;;;5062783;28;20491;-61
2022/01/13 04:51:17;;;;;;;1.70;1.60;;;;;;;;;;5066651;28;20559;-61
2022/01/13 04:53:43;;;;;;;1.70;1.60;;;;;;;;;;5071898;28;20214;-61
2022/01/13 04:56:13;;;;;;;2.15;1.70;;;;;;;;;;5070847;28;20198;-61
2022/01/13 04:58:39;;;;;;;1.70;1.52;;;;;;;;;;5070864;28;20240;-61
2022/01/13 05:01:05;;;;;;;1.48;1.38;;;;;;;;;;5071157;28;20230;-61
2022/01/13 05:03:31;;;;;;;1.63;1.52;;;;;;;;;;5073936;28;20860;-61
2022/01/13 05:05:58;;;;;;;1.50;1.40;;;;;;;;;;5065864;28;20236;-61
2022/01/13 05:08:23;;;;;;;1.83;1.73;;;;;;;;;;5069512;28;20206;-60
2022/01/13 05:10:49;;;;;;;1.75;1.50;;;;;;;;;;5072236;28;20234;-61
2022/01/13 05:13:16;;;;;;;1.88;1.60;;;;;;;;;;5070601;28;20179;-61
2022/01/13 05:15:44;;;;;;;1.58;1.48;;;;;;;;;;5069736;28;20179;-61
2022/01/13 05:20:45;;;;;;;1.60;1.50;;;;;;;;;;5068565;28;20704;-60
2022/01/13 05:23:12;;;;;;;1.52;1.42;;;;;;;;;;5074371;28;20225;-60
2022/01/13 05:25:39;;;;;;;1.55;1.45;;;;;;;;;;5069116;28;20218;-60
2022/01/13 05:28:05;;;;;;;2.10;1.50;;;;;;;;;;5071894;28;20229;-60
2022/01/13 05:30:31;;;;;;;1.50;1.38;;;;;;;;;;5067793;28;20496;-60
2022/01/13 05:32:58;;;;;;;3.20;1.45;;;;;;;;;;5063070;28;20303;-59
2022/01/13 05:35:24;;;;;;;5.20;1.85;;;;;;;;;;5070435;28;20263;-59
2022/01/13 05:37:50;;;;;;;2.83;1.40;;;;;;;;;;5068104;28;20191;-60
2022/01/13 05:40:16;;;;;;;3.58;1.60;;;;;;;;;;5062172;28;20187;-60
2022/01/13 05:42:42;;;;;;;3.42;1.60;;;;;;;;;;5071235;28;20614;-60
2022/01/13 05:45:16;;;;;;;5.38;2.05;;;;;;;;;;5070039;28;20261;-60
2022/01/13 05:47:46;;;;;;;7.80;2.90;;;;;;;;;;5064183;28;20193;-59
2022/01/13 05:50:13;;;;;;;8.02;2.70;;;;;;;;;;5060678;28;20201;-58
2022/01/13 05:52:39;;;;;;;10.63;2.60;;;;;;;;;;5064608;28;20179;-59
2022/01/13 05:55:06;;;;;;;11.40;2.85;;;;;;;;;;5057806;28;20174;-59
2022/01/13 05:57:32;;;;;;;6.00;2.30;;;;;;;;;;5072985;28;20223;-58
2022/01/13 05:59:58;;;;;;;18.17;2.90;;;;;;;;;;5072628;28;20546;-58
2022/01/13 06:02:24;;;;;;;7.72;2.38;;;;;;;;;;5068173;28;20210;-58
2022/01/13 06:04:50;;;;;;;7.78;3.22;;;;;;;;;;5069748;28;20369;-58
2022/01/13 06:07:17;;;;;;;7.47;2.55;;;;;;;;;;5070326;28;20182;-58
2022/01/13 06:09:43;;;;;;;10.18;2.60;;;;;;;;;;5055429;28;20179;-58
2022/01/13 06:12:10;;;;;;;10.27;2.80;;;;;;;;;;5071107;28;20218;-58
2022/01/13 06:14:36;;;;;;;6.57;2.78;;;;;;;;;;5066189;28;20206;-58
2022/01/13 06:17:02;;;;;;;4.95;2.30;;;;;;;;;;5067311;28;20206;-58
2022/01/13 06:19:28;;;;;;;9.38;3.20;;;;;;;;;;5066413;28;20584;-58
2022/01/13 06:21:54;;;;;;;7.35;2.97;;;;;;;;;;5071411;28;20268;-58
2022/01/13 06:24:20;;;;;;;5.07;2.25;;;;;;;;;;5059889;28;20597;-58
2022/01/13 06:26:46;;;;;;;6.90;2.58;;;;;;;;;;5071846;28;20182;-58
2022/01/13 06:29:12;;;;;;;7.05;2.80;;;;;;;;;;5073058;28;20542;-58
2022/01/13 06:31:38;;;;;;;7.22;2.67;;;;;;;;;;5068584;28;20237;-58
2022/01/13 06:34:04;;;;;;;8.68;2.53;;;;;;;;;;5057105;28;20186;-58
2022/01/13 06:36:31;;;;;;;5.88;2.60;;;;;;;;;;5070053;28;20914;-58
2022/01/13 06:38:57;;;;;;;8.90;2.70;;;;;;;;;;5069202;28;20585;-59
2022/01/13 06:41:24;;;;;;;6.93;2.40;;;;;;;;;;5067151;28;20216;-58
2022/01/13 06:43:50;;;;;;;4.80;2.35;;;;;;;;;;5067912;28;20186;-58
2022/01/13 06:46:16;;;;;;;5.32;2.33;;;;;;;;;;5070602;28;20502;-59
2022/01/13 06:48:42;;;;;;;5.10;2.55;;;;;;;;;;5059919;28;20201;-58
2022/01/13 06:51:09;;;;;;;5.18;2.15;;;;;;;;;;5065120;28;20213;-58
2022/01/13 06:53:35;;;;;;;5.55;2.33;;;;;;;;;;5063008;28;20209;-58
2022/01/13 06:56:01;;;;;;;3.47;2.00;;;;;;;;;;5070421;28;20198;-58
2022/01/13 06:58:28;;;;;;;4.28;2.17;;;;;;;;;;5066728;28;20182;-59
2022/01/13 07:00:54;;;;;;;6.20;2.20;;;;;;;;;;5071151;28;20198;-59
2022/01/13 07:03:21;;;;;;;4.50;2.20;;;;;;;;;;5071045;28;20190;-58
2022/01/13 07:05:47;;;;;;;5.50;2.20;;;;;;;;;;5066132;28;20550;-58
2022/01/13 07:08:13;;;;;;;5.03;2.08;;;;;;;;;;5065200;28;20187;-58
2022/01/13 07:10:40;;;;;;;3.22;1.92;;;;;;;;;;5071441;28;20221;-58
2022/01/13 07:13:06;;;;;;;5.55;2.45;;;;;;;;;;5065040;28;20185;-58
2022/01/13 07:15:32;;;;;;;3.97;2.45;;;;;;;;;;5070787;28;20175;-58
2022/01/13 07:17:58;;;;;;;3.03;2.03;;;;;;;;;;5070563;28;20179;-58
2022/01/13 07:20:26;;;;;;;3.40;2.00;;;;;;;;;;5066490;28;20641;-58
2022/01/13 07:22:52;;;;;;;4.30;2.13;;;;;;;;;;5070852;28;20486;-58
2022/01/13 07:25:19;;;;;;;5.22;2.15;;;;;;;;;;5061353;28;20185;-58
2022/01/13 07:27:45;;;;;;;2.53;1.88;;;;;;;;;;5068952;28;20282;-58
2022/01/13 07:30:11;;;;;;;7.90;2.20;;;;;;;;;;5061205;28;20209;-58
2022/01/13 07:32:38;;;;;;;5.03;2.10;;;;;;;;;;5060681;28;20238;-58
2022/01/13 07:35:05;;;;;;;4.55;1.88;;;;;;;;;;5068399;28;20194;-58
2022/01/13 07:37:31;;;;;;;3.80;1.92;;;;;;;;;;5070674;28;20186;-58
2022/01/13 07:39:57;;;;;;;3.58;2.08;;;;;;;;;;5071385;28;20289;-59
2022/01/13 07:42:24;;;;;;;2.55;1.70;;;;;;;;;;5067885;28;20179;-58
2022/01/13 07:44:52;;;;;;;2.75;1.73;;;;;;;;;;5064856;28;20210;-59
2022/01/13 07:47:18;;;;;;;1.77;1.52;;;;;;;;;;5065284;28;20194;-59
2022/01/13 07:49:44;;;;;;;4.70;2.03;;;;;;;;;;5063830;28;20198;-59
2022/01/13 07:52:10;;;;;;;3.80;1.75;;;;;;;;;;5060511;28;20588;-59
2022/01/13 07:54:36;;;;;;;2.95;1.65;;;;;;;;;;5064414;28;20187;-58
2022/01/13 07:57:02;;;;;;;2.67;1.83;;;;;;;;;;5063419;28;20182;-58
2022/01/13 07:59:29;;;;;;;3.13;1.63;;;;;;;;;;5060284;28;20175;-58
2022/01/13 08:01:59;;;;;;;2.08;1.60;;;;;;;;;;5067874;28;20308;-58
2022/01/13 08:04:25;;;;;;;2.92;1.65;;;;;;;;;;5062310;28;20255;-58
2022/01/13 08:06:51;;;;;;;2.20;1.80;;;;;;;;;;5068136;28;20491;-58
2022/01/13 08:09:17;;;;;;;2.55;1.65;;;;;;;;;;5060129;28;20183;-58
2022/01/13 08:11:44;;;;;;;3.80;1.60;;;;;;;;;;5062405;28;20225;-59
2022/01/13 08:14:10;;;;;;;2.45;1.75;;;;;;;;;;5059283;28;20202;-59
2022/01/13 08:16:41;;;;;;;1.95;1.63;;;;;;;;;;5070588;28;20210;-59
2022/01/13 08:21:51;;;;;;;1.48;1.33;;;;;;;;;;5060327;28;20856;-59
2022/01/13 08:24:17;;;;;;;1.90;1.38;;;;;;;;;;5070648;28;20186;-59
2022/01/13 08:26:43;;;;;;;2.22;1.60;;;;;;;;;;5071422;28;20559;-60
2022/01/13 08:29:09;;;;;;;4.28;1.80;;;;;;;;;;5063761;28;20190;-60
2022/01/13 08:31:35;;;;;;;3.60;1.77;;;;;;;;;;5055943;28;20207;-61
2022/01/13 08:34:01;;;;;;;4.80;1.67;;;;;;;;;;5060768;28;20245;-61
2022/01/13 08:36:27;;;;;;;5.65;1.88;;;;;;;;;;5065220;28;20583;-61
2022/01/13 08:38:53;;;;;;;4.63;1.67;;;;;;;;;;5063240;28;20183;-61
2022/01/13 08:41:19;;;;;;;4.78;1.70;;;;;;;;;;5067090;28;20266;-61
2022/01/13 08:43:45;;;;;;;7.22;2.25;;;;;;;;;;5059990;28;20256;-61
2022/01/13 08:46:11;;;;;;;4.95;1.92;;;;;;;;;;5073595;28;20228;-61
2022/01/13 08:48:37;;;;;;;5.22;2.10;;;;;;;;;;5073801;28;20179;-61
2022/01/13 08:51:04;;;;;;;4.97;1.88;;;;;;;;;;5072990;28;20212;-63
2022/01/13 08:53:30;;;;;;;6.00;1.80;;;;;;;;;;5070493;28;20175;-62
2022/01/13 08:55:58;;;;;;;5.00;2.17;;;;;;;;;;5071709;28;20220;-62
2022/01/13 08:58:24;;;;;;;4.50;1.77;;;;;;;;;;5073358;28;20171;-62
2022/01/13 09:00:51;;;;;;;4.90;1.60;;;;;;;;;;5057169;28;20206;-62
2022/01/13 09:03:17;;;;;;;4.10;1.60;;;;;;;;;;5062010;28;20175;-62
2022/01/13 09:05:44;;;;;;;5.13;2.03;;;;;;;;;;5067628;28;20190;-62
2022/01/13 09:08:11;;;;;;;4.22;1.75;;;;;;;;;;5071699;28;20221;-63
2022/01/13 09:10:39;;;;;;;8.60;2.10;;;;;;;;;;5067983;28;20218;-63
2022/01/13 09:13:06;;;;;;;4.57;1.70;;;;;;;;;;5075378;28;20166;-62
2022/01/13 09:15:36;;;;;;;6.43;1.83;;;;;;;;;;5073215;28;20170;-61
2022/01/13 09:18:12;;;;;;;5.43;2.08;;;;;;;;;;5067733;28;20163;-61
2022/01/13 09:20:39;;;;;;;4.60;1.83;;;;;;;;;;5062343;28;20617;-61
2022/01/13 09:23:05;;;;;;;4.32;1.60;;;;;;;;;;5075403;28;20186;-61
2022/01/13 09:25:31;;;;;;;6.65;2.40;;;;;;;;;;5074070;28;20189;-63
2022/01/13 09:27:57;;;;;;;4.80;2.15;;;;;;;;;;5075018;28;20262;-63
2022/01/13 09:30:23;;;;;;;8.57;2.17;;;;;;;;;;5068303;28;20289;-63
2022/01/13 09:32:51;;;;;;;9.75;2.45;;;;;;;;;;5064908;28;20206;-61
2022/01/13 09:35:17;;;;;;;9.30;1.80;;;;;;;;;;5061548;28;20179;-61
2022/01/13 09:37:43;;;;;;;3.35;1.60;;;;;;;;;;5071153;28;20185;-61
2022/01/13 09:40:10;;;;;;;17.17;2.17;;;;;;;;;;5063079;28;20512;-61
2022/01/13 09:42:39;;;;;;;5.75;1.92;;;;;;;;;;5073681;28;20178;-61
2022/01/13 09:45:07;;;;;;;8.13;2.00;;;;;;;;;;5063442;28;20183;-61
2022/01/13 09:47:35;;;;;;;9.25;1.88;;;;;;;;;;5067096;28;20185;-62
2022/01/13 09:50:02;;;;;;;12.18;1.83;;;;;;;;;;5061004;28;20191;-62
2022/01/13 09:52:28;;;;;;;6.45;1.88;;;;;;;;;;5065350;28;20214;-62
2022/01/13 09:54:55;;;;;;;5.43;1.65;;;;;;;;;;5064697;28;20608;-62
2022/01/13 09:57:21;;;;;;;6.90;1.90;;;;;;;;;;5071291;28;20197;-62
2022/01/13 09:59:47;;;;;;;11.00;1.95;;;;;;;;;;5071536;28;20478;-62
2022/01/13 10:02:13;;;;;;;5.57;1.70;;;;;;;;;;5068572;28;20239;-62
2022/01/13 10:04:46;;;;;;;9.85;1.77;;;;;;;;;;5066422;28;20229;-62
2022/01/13 10:07:13;;;;;;;4.15;1.80;;;;;;;;;;5070876;28;20170;-62
2022/01/13 10:09:53;;;;;;;7.90;1.90;;;;;;;;;;5070763;28;20262;-62
2022/01/13 10:12:40;;;;;;;5.07;1.73;;;;;;;;;;5071052;28;20229;-62
2022/01/13 10:17:50;;;;;;;4.88;1.70;;;;;;;;;;5067094;28;20267;-62
2022/01/13 10:20:17;;;;;;;6.07;2.00;;;;;;;;;;5066916;28;20216;-62
2022/01/13 10:22:43;;;;;;;6.85;2.05;;;;;;;;;;5068662;28;20183;-62
2022/01/13 10:25:24;;;;;;;3.75;1.83;;;;;;;;;;5057011;28;20175;-62
2022/01/13 10:27:50;;;;;;;3.72;1.50;;;;;;;;;;5066919;28;20247;-62
2022/01/13 10:30:17;;;;;;;4.93;1.70;;;;;;;;;;5072156;28;20687;-62
2022/01/13 10:32:45;;;;;;;3.35;1.73;;;;;;;;;;5055703;28;20189;-62
2022/01/13 10:35:14;;;;;;;4.65;1.35;;;;;;;;;;5060752;28;20179;-62
2022/01/13 10:37:41;;;;;;;3.47;1.60;;;;;;;;;;5070892;28;20229;-62
2022/01/13 10:40:22;;;;;;;2.83;1.77;;;;;;;;;;5069020;28;20178;-62
2022/01/13 10:45:25;;;;;;;3.25;1.80;;;;;;;;;;5068372;28;20214;-61
2022/01/13 10:47:53;;;;;;;3.20;1.70;;;;;;;;;;5064460;28;20624;-61
2022/01/13 10:50:19;;;;;;;5.40;1.90;;;;;;;;;;5066931;28;20178;-61
2022/01/13 10:52:45;;;;;;;4.07;1.70;;;;;;;;;;5068656;28;20210;-61
2022/01/13 10:55:24;;;;;;;3.55;1.40;;;;;;;;;;5069019;28;20526;-62
2022/01/13 10:57:51;;;;;;;2.95;1.73;;;;;;;;;;5064517;28;20465;-62
2022/01/13 11:00:17;;;;;;;4.75;1.80;;;;;;;;;;5060133;28;20179;-62
2022/01/13 11:02:44;;;;;;;5.55;1.85;;;;;;;;;;5071798;28;20232;-62
2022/01/13 11:05:10;;;;;;;6.72;2.20;;;;;;;;;;5063262;28;20654;-61
2022/01/13 11:07:37;;;;;;;4.07;1.90;;;;;;;;;;5070524;28;20190;-61
2022/01/13 11:10:05;;;;;;;7.00;2.03;;;;;;;;;;5064616;28;20167;-62
2022/01/13 11:12:35;;;;;;;6.88;2.00;;;;;;;;;;5066342;28;20211;-62
2022/01/13 11:15:08;;;;;;;5.00;2.05;;;;;;;;;;5063270;28;20166;-62
2022/01/13 11:17:37;;;;;;;3.42;1.83;;;;;;;;;;5065235;28;20532;-61
2022/01/13 11:20:04;;;;;;;4.85;1.80;;;;;;;;;;5068619;28;20166;-61
2022/01/13 11:22:34;;;;;;;8.02;1.90;;;;;;;;;;5068722;28;20190;-61
2022/01/13 11:25:01;;;;;;;7.57;2.05;;;;;;;;;;5057846;28;20210;-61
2022/01/13 11:27:27;;;;;;;11.55;2.20;;;;;;;;;;5067437;28;20201;-62
2022/01/13 11:29:55;;;;;;;3.65;1.75;;;;;;;;;;5060403;28;20251;-62
2022/01/13 11:32:21;;;;;;;6.75;1.92;;;;;;;;;;5064918;28;20626;-62
2022/01/13 11:34:47;;;;;;;3.22;1.77;;;;;;;;;;5061715;28;20187;-62
2022/01/13 11:37:13;;;;;;;6.43;2.00;;;;;;;;;;5067073;28;20257;-62
2022/01/13 11:39:42;;;;;;;3.75;1.95;;;;;;;;;;5064718;28;20554;-62
2022/01/13 11:42:09;;;;;;;2.58;1.70;;;;;;;;;;5070882;28;20186;-61
2022/01/13 11:44:36;;;;;;;2.67;1.80;;;;;;;;;;5066087;28;20182;-61
2022/01/13 11:47:08;;;;;;;5.68;1.67;;;;;;;;;;5066122;28;20183;-61
2022/01/13 11:52:13;;;;;;;6.85;2.10;;;;;;;;;;5067417;28;20237;-62
2022/01/13 11:54:40;;;;;;;3.20;1.80;;;;;;;;;;5065983;28;20202;-62
2022/01/13 11:57:15;;;;;;;2.60;1.63;;;;;;;;;;5068218;28;20190;-62
2022/01/13 12:00:01;;;;;;;2.67;1.60;;;;;;;;;;5068265;28;20186;-62
2022/01/13 12:02:28;;;;;;;3.53;2.00;;;;;;;;;;5067915;28;20218;-62
2022/01/13 12:05:04;;;;;;;2.53;1.73;;;;;;;;;;5071445;28;20184;-61
2022/01/13 12:07:44;;;;;;;2.92;1.75;;;;;;;;;;5062174;28;20182;-61
2022/01/13 12:10:11;;;;;;;8.00;1.95;;;;;;;;;;5071454;28;20178;-62
2022/01/13 12:12:38;;;;;;;2.80;1.60;;;;;;;;;;5075091;28;20589;-62
2022/01/13 12:15:23;;;;;;;4.15;1.65;;;;;;;;;;5067802;28;20170;-61
2022/01/13 12:17:51;;;;;;;3.05;1.70;;;;;;;;;;5068523;28;20274;-61
2022/01/13 12:20:26;;;;;;;4.35;1.70;;;;;;;;;;5065912;28;20525;-62
2022/01/13 12:23:03;;;;;;;3.88;1.70;;;;;;;;;;5069910;28;20553;-62
2022/01/13 12:25:34;;;;;;;4.32;1.60;;;;;;;;;;5063911;28;20194;-60
2022/01/13 12:28:10;;;;;;;1.90;1.70;;;;;;;;;;5065423;28;20183;-61
2022/01/13 12:30:36;;;;;;;3.05;1.70;;;;;;;;;;5058503;28;20210;-61
2022/01/13 12:33:07;;;;;;;3.45;1.90;;;;;;;;;;5065041;28;20593;-61
2022/01/13 12:35:39;;;;;;;3.08;1.83;;;;;;;;;;5073201;28;20193;-61
2022/01/13 12:38:19;;;;;;;4.57;1.88;;;;;;;;;;5069436;28;20209;-61
2022/01/13 12:41:02;;;;;;;3.55;1.65;;;;;;;;;;5070928;28;20449;-61
2022/01/13 12:46:01;;;;;;;2.40;1.70;;;;;;;;;;5070553;28;20232;-61
2022/01/13 12:48:31;;;;;;;3.17;1.90;;;;;;;;;;5073448;28;20597;-61
2022/01/13 12:50:58;;;;;;;4.85;2.00;;;;;;;;;;5064352;28;20206;-61
2022/01/13 12:53:26;;;;;;;4.38;1.90;;;;;;;;;;5069088;28;20178;-61
2022/01/13 12:55:57;;;;;;;9.32;2.45;;;;;;;;;;5068093;28;20186;-53
2022/01/13 12:58:26;;;;;;;5.10;2.90;;;;;;;;;;5074003;28;20183;-50
2022/01/13 13:00:55;;;;;;;6.68;3.83;;;;;;;;;;5064538;28;20213;-54
2022/01/13 13:03:21;;;;;;;5.80;4.30;;;;;;;;;;5064194;28;20187;-52
2022/01/13 13:05:49;;;;;;;6.47;4.65;;;;;;;;;;5062067;28;20511;-54
2022/01/13 13:08:16;;;;;;;4.97;3.97;;;;;;;;;;5064757;28;20286;-50
2022/01/13 13:10:44;;;;;;;5.03;4.15;;;;;;;;;;5068696;28;20226;-51
2022/01/13 13:13:12;;;;;;;6.30;2.80;;;;;;;;;;5066131;28;20232;-53
2022/01/13 13:18:04;;;;;;;6.90;2.40;;;;;;;;;;5071372;28;20179;-58
2022/01/13 13:20:31;;;;;;;5.97;2.10;;;;;;;;;;5069867;28;20416;-56
2022/01/13 13:22:59;;;;;;;4.25;2.03;;;;;;;;;;5070751;28;20899;-55
2022/01/13 13:25:32;;;;;;;2.33;1.70;;;;;;;;;;5074116;28;20261;-51
2022/01/13 13:28:16;;;;;;;3.72;1.88;;;;;;;;;;5069088;28;20565;-55
2022/01/13 13:30:46;;;;;;;2.22;1.80;;;;;;;;;;5071428;28;20500;-56
2022/01/13 13:33:15;;;;;;;2.95;1.92;;;;;;;;;;5067099;28;20261;-51
2022/01/13 13:35:41;;;;;;;3.88;1.70;;;;;;;;;;5067570;28;20175;-53
2022/01/13 13:38:14;;;;;;;3.38;1.70;;;;;;;;;;5075022;28;20589;-57
2022/01/13 13:40:46;;;;;;;3.15;1.67;;;;;;;;;;5070372;28;20175;-58
2022/01/13 13:43:13;;;;;;;3.70;2.05;;;;;;;;;;5072357;28;20206;-52
2022/01/13 13:45:39;;;;;;;5.07;1.90;;;;;;;;;;5069330;28;20244;-52
2022/01/13 13:48:05;;;;;;;2.63;1.80;;;;;;;;;;5070687;28;20205;-50
2022/01/13 13:50:32;;;;;;;4.18;1.88;;;;;;;;;;5062334;28;20234;-51
2022/01/13 13:53:05;;;;;;;4.55;1.70;;;;;;;;;;5060725;28;20659;-52
2022/01/13 13:55:31;;;;;;;5.28;1.60;;;;;;;;;;5064785;28;20205;-52
2022/01/13 13:57:57;;;;;;;1.98;1.77;;;;;;;;;;5069738;28;20498;-53
2022/01/13 14:00:26;;;;;;;2.50;1.60;;;;;;;;;;5063625;28;20178;-53
2022/01/13 14:02:54;;;;;;;3.72;1.63;;;;;;;;;;5075007;28;20220;-53
2022/01/13 14:05:24;;;;;;;4.18;1.70;;;;;;;;;;5060402;28;20175;-53
2022/01/13 14:07:50;;;;;;;3.15;1.90;;;;;;;;;;5068676;28;20167;-53
2022/01/13 14:10:22;;;;;;;3.90;1.42;;;;;;;;;;5069603;28;20177;-53
2022/01/13 14:12:55;;;;;;;4.95;1.75;;;;;;;;;;5065301;28;20190;-53
2022/01/13 14:15:30;;;;;;;5.47;1.80;;;;;;;;;;5065847;28;20179;-54
2022/01/13 14:17:56;;;;;;;8.05;1.98;;;;;;;;;;5066816;28;20456;-53
2022/01/13 14:20:24;;;;;;;7.20;1.90;;;;;;;;;;5067312;28;20178;-53
2022/01/13 14:23:02;;;;;;;9.50;1.73;;;;;;;;;;5071267;28;20182;-53
2022/01/13 14:25:35;;;;;;;5.88;2.13;;;;;;;;;;5057310;28;20485;-53
2022/01/13 14:28:06;;;;;;;6.40;1.98;;;;;;;;;;5066235;28;20573;-53
2022/01/13 14:30:32;;;;;;;7.88;1.95;;;;;;;;;;5067800;28;20191;-54
2022/01/13 14:33:14;;;;;;;7.95;2.00;;;;;;;;;;5061237;28;20240;-53
2022/01/13 14:35:41;;;;;;;4.63;2.05;;;;;;;;;;5064728;28;20171;-54
2022/01/13 14:38:13;;;;;;;10.77;2.13;;;;;;;;;;5069010;28;20178;-53
2022/01/13 14:40:43;;;;;;;5.07;1.80;;;;;;;;;;5069438;28;20175;-53
2022/01/13 14:43:17;;;;;;;6.03;1.95;;;;;;;;;;5066704;28;20224;-53
2022/01/13 14:45:44;;;;;;;5.95;2.47;;;;;;;;;;5065804;28;20774;-54
2022/01/13 14:48:10;;;;;;;2.17;1.80;;;;;;;;;;5068608;28;20174;-53
2022/01/13 14:50:36;;;;;;;4.38;2.25;;;;;;;;;;5067565;28;20194;-53
2022/01/13 14:53:02;;;;;;;6.35;2.05;;;;;;;;;;5064941;28;20182;-53
2022/01/13 14:55:28;;;;;;;5.82;2.10;;;;;;;;;;5066549;28;21019;-53
2022/01/13 14:57:55;;;;;;;5.28;1.92;;;;;;;;;;5067563;28;20179;-54
2022/01/13 15:00:21;;;;;;;9.00;2.00;;;;;;;;;;5068674;28;20544;-54
2022/01/13 15:02:50;;;;;;;8.02;1.92;;;;;;;;;;5070657;28;20217;-53
2022/01/13 15:05:18;;;;;;;4.05;1.90;;;;;;;;;;5068848;28;20469;-53
2022/01/13 15:07:44;;;;;;;8.40;2.08;;;;;;;;;;5061781;28;20186;-53
2022/01/13 15:10:10;;;;;;;3.28;1.70;;;;;;;;;;5067551;28;20582;-53
2022/01/13 15:12:36;;;;;;;2.63;2.10;;;;;;;;;;5061663;28;20206;-53
2022/01/13 15:15:02;;;;;;;4.00;2.03;;;;;;;;;;5063893;28;20188;-53
2022/01/13 15:17:28;;;;;;;4.78;2.20;;;;;;;;;;5070679;28;20261;-53